Time;durP1;ratioP1;P1;durP2;ratioP2;P2;SDS_P1;SDS_P2;PMS_P1;PMS_P2;Temp;Humidity;BMP_temperature;BMP_pressure;BME280_temperature;BME280_humidity;BME280_pressure;Samples;Min_cycle;Max_cycle;Signal;HPM_P1;HPM_P2
2023/12/30 00:01:02;;;;;;;61.77;44.57;;;10.70;98.50;;;;;;5015336;28;20196;-61
2023/12/30 00:03:29;;;;;;;55.43;40.63;;;10.70;98.50;;;;;;5013869;28;20650;-60
2023/12/30 00:05:56;;;;;;;62.37;42.17;;;10.70;98.50;;;;;;5020272;28;20225;-60
2023/12/30 00:08:23;;;;;;;61.50;44.17;;;10.60;98.60;;;;;;5017359;28;20207;-61
2023/12/30 00:10:50;;;;;;;63.37;43.23;;;10.70;98.70;;;;;;5014740;28;20202;-61
2023/12/30 00:13:17;;;;;;;58.53;42.53;;;10.70;98.70;;;;;;5016342;28;20210;-61
2023/12/30 00:15:45;;;;;;;58.80;43.50;;;10.70;98.60;;;;;;5015252;28;20306;-60
2023/12/30 00:18:12;;;;;;;63.43;43.07;;;10.60;98.60;;;;;;5017976;28;20263;-61
2023/12/30 00:20:39;;;;;;;59.97;43.87;;;10.60;98.60;;;;;;5013182;28;20222;-60
2023/12/30 00:23:07;;;;;;;59.70;42.77;;;10.70;98.70;;;;;;5018795;28;20207;-60
2023/12/30 00:25:34;;;;;;;59.43;43.17;;;10.60;98.70;;;;;;5016199;28;20327;-61
2023/12/30 00:28:02;;;;;;;64.97;44.27;;;10.70;98.70;;;;;;5015940;28;20206;-61
2023/12/30 00:30:29;;;;;;;54.50;40.93;;;10.60;98.70;;;;;;5015156;28;20599;-60
2023/12/30 00:32:56;;;;;;;58.67;40.47;;;10.70;98.80;;;;;;5019494;28;20210;-61
2023/12/30 00:35:23;;;;;;;53.50;40.43;;;10.70;98.80;;;;;;5018101;28;20225;-60
2023/12/30 00:37:53;;;;;;;59.47;42.13;;;10.60;98.80;;;;;;5014288;28;20537;-61
2023/12/30 00:40:20;;;;;;;50.70;41.47;;;10.60;98.80;;;;;;5013595;28;20300;-60
2023/12/30 00:42:53;;;;;;;61.73;43.60;;;10.60;98.80;;;;;;5016509;28;20206;-60
2023/12/30 00:45:20;;;;;;;60.30;42.63;;;10.60;98.80;;;;;;5017893;28;20273;-61
2023/12/30 00:47:47;;;;;;;58.43;43.10;;;10.60;98.80;;;;;;5020478;28;20600;-61
2023/12/30 00:50:15;;;;;;;59.13;43.70;;;10.70;98.90;;;;;;5016536;28;20584;-61
2023/12/30 00:52:43;;;;;;;59.40;43.47;;;10.60;98.80;;;;;;5013359;28;20286;-61
2023/12/30 00:55:10;;;;;;;61.93;43.87;;;10.60;98.60;;;;;;5023022;28;20213;-61
2023/12/30 00:57:37;;;;;;;63.27;44.53;;;10.60;98.60;;;;;;5015725;28;20712;-61
2023/12/30 01:00:05;;;;;;;60.43;43.57;;;10.60;98.50;;;;;;5013872;28;20278;-61
2023/12/30 01:02:32;;;;;;;61.97;44.37;;;10.50;98.50;;;;;;5015952;28;20199;-61
2023/12/30 01:05:00;;;;;;;60.47;44.07;;;10.50;98.50;;;;;;5005532;28;20242;-62
2023/12/30 01:07:27;;;;;;;57.70;42.10;;;10.50;98.60;;;;;;5014980;28;20210;-60
2023/12/30 01:09:54;;;;;;;60.97;45.70;;;10.50;98.70;;;;;;5019096;28;20205;-61
2023/12/30 01:12:21;;;;;;;61.47;46.00;;;10.50;98.70;;;;;;5003014;28;20615;-61
2023/12/30 01:14:48;;;;;;;66.60;46.93;;;10.40;98.70;;;;;;5020360;28;20225;-61
2023/12/30 01:17:15;;;;;;;67.90;47.10;;;10.40;98.80;;;;;;5018467;28;20222;-61
2023/12/30 01:19:42;;;;;;;69.77;49.27;;;10.40;99.00;;;;;;5017140;28;20233;-61
2023/12/30 01:22:11;;;;;;;58.67;45.73;;;10.40;99.00;;;;;;5018560;28;20561;-61
2023/12/30 01:24:38;;;;;;;64.57;45.83;;;10.40;99.10;;;;;;5015075;28;20204;-61
2023/12/30 01:27:05;;;;;;;61.03;44.67;;;10.40;99.10;;;;;;5019173;28;20197;-60
2023/12/30 01:29:32;;;;;;;61.13;43.90;;;10.40;99.10;;;;;;5009110;28;20214;-60
2023/12/30 01:31:59;;;;;;;60.47;44.17;;;10.40;99.10;;;;;;5017590;28;20211;-61
2023/12/30 01:34:26;;;;;;;60.67;45.37;;;10.40;99.10;;;;;;5017688;28;20339;-60
2023/12/30 01:36:54;;;;;;;61.50;45.57;;;10.40;99.10;;;;;;5022167;28;20210;-60
2023/12/30 01:39:21;;;;;;;59.97;45.47;;;10.40;99.20;;;;;;5014547;28;20194;-61
2023/12/30 01:41:51;;;;;;;63.57;46.60;;;10.40;99.20;;;;;;5018142;28;20220;-62
2023/12/30 01:44:18;;;;;;;62.30;44.90;;;10.40;99.30;;;;;;5020010;28;20199;-62
2023/12/30 01:46:46;;;;;;;57.40;41.73;;;10.40;99.20;;;;;;5020930;28;20263;-62
2023/12/30 01:49:14;;;;;;;62.57;43.90;;;10.40;99.30;;;;;;5018856;28;20205;-62
2023/12/30 01:51:41;;;;;;;56.93;42.40;;;10.40;99.20;;;;;;5017094;28;20592;-62
2023/12/30 01:54:09;;;;;;;50.83;40.30;;;10.40;99.30;;;;;;5017320;28;20198;-62
2023/12/30 01:56:36;;;;;;;49.47;37.13;;;10.40;99.30;;;;;;5022983;28;20209;-61
2023/12/30 01:59:05;;;;;;;48.53;38.77;;;10.40;99.40;;;;;;5024025;28;20197;-61
2023/12/30 02:01:33;;;;;;;52.37;37.00;;;10.30;99.40;;;;;;4995814;28;20203;-61
2023/12/30 02:04:00;;;;;;;45.40;34.70;;;10.40;99.40;;;;;;5015836;28;20199;-61
2023/12/30 02:06:28;;;;;;;50.03;36.87;;;10.40;99.40;;;;;;5015088;28;20278;-61
2023/12/30 02:08:55;;;;;;;45.43;37.63;;;10.30;99.40;;;;;;5020662;28;20599;-61
2023/12/30 02:11:22;;;;;;;50.47;38.07;;;10.30;99.50;;;;;;5021580;28;20202;-61
2023/12/30 02:13:49;;;;;;;48.57;37.30;;;10.40;99.50;;;;;;5021695;28;20190;-62
2023/12/30 02:16:16;;;;;;;51.47;36.73;;;10.30;99.50;;;;;;5018142;28;20307;-62
2023/12/30 02:18:44;;;;;;;49.67;34.77;;;10.40;99.50;;;;;;5013066;28;20522;-62
2023/12/30 02:21:11;;;;;;;52.50;37.00;;;10.30;99.50;;;;;;5019733;28;20204;-62
2023/12/30 02:23:40;;;;;;;51.00;35.23;;;10.30;99.50;;;;;;5018006;28;20214;-61
2023/12/30 02:26:10;;;;;;;47.70;37.03;;;10.30;99.60;;;;;;5019969;28;20215;-61
2023/12/30 02:28:37;;;;;;;52.50;36.37;;;10.40;99.60;;;;;;5019633;28;20216;-61
2023/12/30 02:31:04;;;;;;;47.63;34.73;;;10.30;99.60;;;;;;5017266;28;20213;-63
2023/12/30 02:33:31;;;;;;;44.63;34.27;;;10.30;99.60;;;;;;5021111;28;20260;-61
2023/12/30 02:35:58;;;;;;;47.87;36.73;;;10.30;99.60;;;;;;5013259;28;20227;-62
2023/12/30 02:38:25;;;;;;;44.67;34.63;;;10.30;99.60;;;;;;5019788;28;20201;-62
2023/12/30 02:40:52;;;;;;;47.93;36.57;;;10.30;99.70;;;;;;5016292;28;20218;-62
2023/12/30 02:43:20;;;;;;;46.53;35.70;;;10.30;99.70;;;;;;5017042;28;20202;-62
2023/12/30 02:45:47;;;;;;;51.63;35.90;;;10.30;99.80;;;;;;5019318;28;20199;-61
2023/12/30 02:48:14;;;;;;;44.83;34.63;;;10.30;99.80;;;;;;5020440;28;20205;-61
2023/12/30 02:50:41;;;;;;;50.83;38.17;;;10.30;99.80;;;;;;5019484;28;20222;-62
2023/12/30 02:53:08;;;;;;;52.10;35.93;;;10.30;99.80;;;;;;5008501;28;20630;-62
2023/12/30 02:55:35;;;;;;;58.47;36.47;;;10.30;99.80;;;;;;5013077;28;20221;-62
2023/12/30 02:58:03;;;;;;;51.40;36.43;;;10.30;99.80;;;;;;5023770;28;20221;-61
2023/12/30 03:00:30;;;;;;;48.43;36.70;;;10.30;99.80;;;;;;5018610;28;20220;-62
2023/12/30 03:02:58;;;;;;;54.67;36.43;;;10.40;99.90;;;;;;5019111;28;20241;-61
2023/12/30 03:05:27;;;;;;;52.57;36.80;;;10.30;99.80;;;;;;5014234;28;20623;-62
2023/12/30 03:07:57;;;;;;;53.13;38.30;;;10.30;99.80;;;;;;5002314;28;20210;-61
2023/12/30 03:10:24;;;;;;;54.50;38.30;;;10.40;99.80;;;;;;5019795;28;20209;-61
2023/12/30 03:12:52;;;;;;;53.53;38.13;;;10.40;99.80;;;;;;5019044;28;20270;-62
2023/12/30 03:15:20;;;;;;;56.00;39.07;;;10.40;99.80;;;;;;5016637;28;20658;-62
2023/12/30 03:17:49;;;;;;;52.13;37.23;;;10.40;99.80;;;;;;5018765;28;20198;-62
2023/12/30 03:20:16;;;;;;;51.93;38.20;;;10.40;99.80;;;;;;5007856;28;20232;-62
2023/12/30 03:22:43;;;;;;;49.57;37.70;;;10.30;99.70;;;;;;5016332;28;20243;-62
2023/12/30 03:25:11;;;;;;;52.60;37.83;;;10.30;99.80;;;;;;5017431;28;20209;-61
2023/12/30 03:27:38;;;;;;;52.07;37.17;;;10.30;99.80;;;;;;5014480;28;20213;-62
2023/12/30 03:30:06;;;;;;;52.37;38.87;;;10.30;99.80;;;;;;5020027;28;20649;-62
2023/12/30 03:32:33;;;;;;;51.67;38.50;;;10.30;99.90;;;;;;5015682;28;20644;-62
2023/12/30 03:35:00;;;;;;;50.27;37.70;;;10.30;99.90;;;;;;5017932;28;20226;-61
2023/12/30 03:37:27;;;;;;;53.77;37.87;;;10.30;99.90;;;;;;5017659;28;20202;-62
2023/12/30 03:39:54;;;;;;;57.53;40.17;;;10.30;99.90;;;;;;5018771;28;20199;-61
2023/12/30 03:42:22;;;;;;;52.23;37.83;;;10.30;99.90;;;;;;5019364;28;20199;-62
2023/12/30 03:44:49;;;;;;;56.10;38.20;;;10.30;99.90;;;;;;5016185;28;20206;-62
2023/12/30 03:47:16;;;;;;;53.33;39.83;;;10.30;99.90;;;;;;5016080;28;20207;-62
2023/12/30 03:49:43;;;;;;;49.80;37.43;;;10.30;99.90;;;;;;5019345;28;20201;-62
2023/12/30 03:52:11;;;;;;;51.13;36.83;;;10.30;99.90;;;;;;5017807;28;20654;-62
2023/12/30 03:54:38;;;;;;;49.57;36.50;;;10.30;99.90;;;;;;5014937;28;20205;-61
2023/12/30 03:57:05;;;;;;;55.13;39.57;;;10.30;99.90;;;;;;5015815;28;20545;-61
2023/12/30 03:59:32;;;;;;;50.37;37.77;;;10.30;99.90;;;;;;5013719;28;20190;-62
2023/12/30 04:01:59;;;;;;;50.53;37.53;;;10.30;99.90;;;;;;5017117;28;20202;-61
2023/12/30 04:04:28;;;;;;;53.07;38.20;;;10.30;99.90;;;;;;5017802;28;20239;-62
2023/12/30 04:06:55;;;;;;;54.40;35.43;;;10.30;99.90;;;;;;5017480;28;20253;-61
2023/12/30 04:09:23;;;;;;;52.60;37.00;;;10.30;99.90;;;;;;5019089;28;20278;-62
2023/12/30 04:11:51;;;;;;;46.97;34.80;;;10.40;99.90;;;;;;5016641;28;20209;-61
2023/12/30 04:14:18;;;;;;;48.63;36.47;;;10.30;99.90;;;;;;5017299;28;20249;-62
2023/12/30 04:16:45;;;;;;;50.27;37.10;;;10.30;99.90;;;;;;5014796;28;20213;-61
2023/12/30 04:19:12;;;;;;;55.63;37.97;;;10.30;99.90;;;;;;4999661;28;20209;-62
2023/12/30 04:21:40;;;;;;;50.87;35.13;;;10.30;99.80;;;;;;5015052;28;20269;-62
2023/12/30 04:24:07;;;;;;;59.10;38.83;;;10.30;99.90;;;;;;5015417;28;20210;-61
2023/12/30 04:26:35;;;;;;;52.43;36.43;;;10.30;99.90;;;;;;4997945;28;20219;-62
2023/12/30 04:29:02;;;;;;;48.37;36.53;;;10.30;99.90;;;;;;5015684;28;20243;-62
2023/12/30 04:31:29;;;;;;;51.20;37.77;;;10.30;99.90;;;;;;4998498;28;20199;-62
2023/12/30 04:33:56;;;;;;;53.27;39.10;;;10.30;99.90;;;;;;5014712;28;20308;-61
2023/12/30 04:36:23;;;;;;;53.60;36.63;;;10.30;99.90;;;;;;5014921;28;20227;-62
2023/12/30 04:38:51;;;;;;;48.50;36.37;;;10.20;99.90;;;;;;5016096;28;20206;-61
2023/12/30 04:41:20;;;;;;;51.63;36.43;;;10.20;99.90;;;;;;5014132;28;20998;-62
2023/12/30 04:43:48;;;;;;;52.50;37.97;;;10.30;99.90;;;;;;5003530;28;20197;-61
2023/12/30 04:46:15;;;;;;;55.93;38.10;;;10.20;99.90;;;;;;5014788;28;20198;-61
2023/12/30 04:48:42;;;;;;;54.47;38.30;;;10.20;99.90;;;;;;5015651;28;20214;-65
2023/12/30 04:51:09;;;;;;;50.80;38.40;;;10.20;99.90;;;;;;5021570;28;20205;-61
2023/12/30 04:53:38;;;;;;;49.87;36.47;;;10.30;99.90;;;;;;4995078;28;20203;-62
2023/12/30 04:56:06;;;;;;;51.53;37.07;;;10.30;99.90;;;;;;5016143;28;20558;-62
2023/12/30 04:58:34;;;;;;;56.33;36.87;;;10.20;99.90;;;;;;5004439;28;20227;-62
2023/12/30 05:01:02;;;;;;;55.60;39.30;;;10.20;99.90;;;;;;5014348;28;20197;-62
2023/12/30 05:03:29;;;;;;;54.87;39.47;;;10.20;99.90;;;;;;5016601;28;20344;-62
2023/12/30 05:05:57;;;;;;;56.17;38.43;;;10.20;99.90;;;;;;5016222;28;20258;-62
2023/12/30 05:08:24;;;;;;;53.57;37.47;;;10.20;99.90;;;;;;5016010;28;20202;-62
2023/12/30 05:10:51;;;;;;;55.27;38.80;;;10.30;99.90;;;;;;5014114;28;20209;-62
2023/12/30 05:13:18;;;;;;;54.37;38.80;;;10.30;99.90;;;;;;5016454;28;20203;-61
2023/12/30 05:15:45;;;;;;;53.77;36.87;;;10.20;99.90;;;;;;5018697;28;20532;-61
2023/12/30 05:18:12;;;;;;;51.10;37.90;;;10.20;99.90;;;;;;5014500;28;20281;-62
2023/12/30 05:20:40;;;;;;;55.97;38.30;;;10.20;99.90;;;;;;5015763;28;20199;-61
2023/12/30 05:23:08;;;;;;;54.40;39.00;;;10.20;99.90;;;;;;5014356;28;20212;-62
2023/12/30 05:25:35;;;;;;;55.43;38.97;;;10.20;99.90;;;;;;5013509;28;20207;-62
2023/12/30 05:28:02;;;;;;;59.13;39.77;;;10.20;99.90;;;;;;5014552;28;20213;-61
2023/12/30 05:30:29;;;;;;;55.53;37.37;;;10.20;99.90;;;;;;5014474;28;20592;-62
2023/12/30 05:32:56;;;;;;;52.53;38.97;;;10.20;99.90;;;;;;5013417;28;20563;-61
2023/12/30 05:35:24;;;;;;;62.00;40.33;;;10.20;99.90;;;;;;5014627;28;20218;-62
2023/12/30 05:37:51;;;;;;;52.63;38.10;;;10.20;99.90;;;;;;5013304;28;20605;-61
2023/12/30 05:40:18;;;;;;;56.50;41.17;;;10.20;99.90;;;;;;5013945;28;20228;-61
2023/12/30 05:42:45;;;;;;;57.40;39.87;;;10.30;99.90;;;;;;5020016;28;20683;-61
2023/12/30 05:45:12;;;;;;;54.67;38.40;;;10.30;99.90;;;;;;5014738;28;20206;-62
2023/12/30 05:47:39;;;;;;;52.83;39.53;;;10.30;99.90;;;;;;5012142;28;20201;-62
2023/12/30 05:50:07;;;;;;;56.60;38.80;;;10.30;99.90;;;;;;5013468;28;20200;-62
2023/12/30 05:52:34;;;;;;;54.90;38.17;;;10.30;99.90;;;;;;5016143;28;20198;-61
2023/12/30 05:55:02;;;;;;;59.97;40.33;;;10.30;99.90;;;;;;5017791;28;20217;-61
2023/12/30 05:57:29;;;;;;;52.10;39.33;;;10.30;99.90;;;;;;5017048;28;20232;-61
2023/12/30 05:59:58;;;;;;;58.73;39.43;;;10.30;99.90;;;;;;5017403;28;20224;-62
2023/12/30 06:02:26;;;;;;;59.00;39.57;;;10.20;99.90;;;;;;5024539;28;20197;-62
2023/12/30 06:04:53;;;;;;;54.47;39.77;;;10.30;99.90;;;;;;5029963;28;20237;-62
2023/12/30 06:07:20;;;;;;;56.43;41.27;;;10.20;99.90;;;;;;5016475;28;20209;-62
2023/12/30 06:09:47;;;;;;;54.73;40.40;;;10.20;99.90;;;;;;5018226;28;20195;-61
2023/12/30 06:12:14;;;;;;;52.80;38.83;;;10.30;99.90;;;;;;5016753;28;20199;-61
2023/12/30 06:14:41;;;;;;;58.27;39.37;;;10.30;99.90;;;;;;5016332;28;20194;-62
2023/12/30 06:17:08;;;;;;;49.57;36.90;;;10.30;99.90;;;;;;5015228;28;20767;-61
2023/12/30 06:19:35;;;;;;;53.07;37.10;;;10.30;99.90;;;;;;5016846;28;20202;-61
2023/12/30 06:22:02;;;;;;;53.40;38.17;;;10.30;99.90;;;;;;5019436;28;20223;-61
2023/12/30 06:24:30;;;;;;;51.80;39.33;;;10.30;99.90;;;;;;5016692;28;20637;-61
2023/12/30 06:26:57;;;;;;;50.33;37.80;;;10.20;99.90;;;;;;5016031;28;20289;-62
2023/12/30 06:29:26;;;;;;;52.47;38.73;;;10.30;99.90;;;;;;5017500;28;20206;-62
2023/12/30 06:31:57;;;;;;;52.90;37.43;;;10.30;99.90;;;;;;5022370;28;20198;-62
2023/12/30 06:34:24;;;;;;;49.73;36.87;;;10.30;99.90;;;;;;5019121;28;20651;-61
2023/12/30 06:36:51;;;;;;;46.60;34.07;;;10.20;99.90;;;;;;5016461;28;20218;-62
2023/12/30 06:39:20;;;;;;;52.07;37.97;;;10.30;99.90;;;;;;5017104;28;20241;-61
2023/12/30 06:41:47;;;;;;;49.20;37.40;;;10.20;99.90;;;;;;5019217;28;20288;-61
2023/12/30 06:44:14;;;;;;;55.77;38.57;;;10.20;99.90;;;;;;5018994;28;20215;-61
2023/12/30 06:46:41;;;;;;;56.07;39.13;;;10.20;99.90;;;;;;5005929;28;20297;-62
2023/12/30 06:49:08;;;;;;;53.73;39.87;;;10.30;99.90;;;;;;5019109;28;20750;-61
2023/12/30 06:51:36;;;;;;;59.83;41.20;;;10.30;99.90;;;;;;5018507;28;20213;-61
2023/12/30 06:54:03;;;;;;;56.87;39.60;;;10.30;99.90;;;;;;5017269;28;20684;-62
2023/12/30 06:56:30;;;;;;;55.03;38.67;;;10.30;99.90;;;;;;5013139;28;20258;-61
2023/12/30 06:58:57;;;;;;;53.40;36.47;;;10.30;99.90;;;;;;5018485;28;20289;-61
2023/12/30 07:01:25;;;;;;;52.77;39.77;;;10.30;99.90;;;;;;5019426;28;20206;-61
2023/12/30 07:03:52;;;;;;;52.50;37.97;;;10.30;99.90;;;;;;5016321;28;20289;-61
2023/12/30 07:06:20;;;;;;;55.70;39.37;;;10.30;99.90;;;;;;5020358;28;20230;-62
2023/12/30 07:08:47;;;;;;;48.40;37.03;;;10.30;99.90;;;;;;5018257;28;20554;-61
2023/12/30 07:11:14;;;;;;;57.90;38.80;;;10.40;99.90;;;;;;5014275;28;20569;-61
2023/12/30 07:13:41;;;;;;;53.13;38.50;;;10.30;99.90;;;;;;5016308;28;20683;-62
2023/12/30 07:16:08;;;;;;;51.07;37.73;;;10.40;99.90;;;;;;5018125;28;20218;-62
2023/12/30 07:18:35;;;;;;;50.07;38.20;;;10.40;99.90;;;;;;5017052;28;20211;-62
2023/12/30 07:21:03;;;;;;;53.33;39.40;;;10.40;99.90;;;;;;5016900;28;20205;-61
2023/12/30 07:23:30;;;;;;;51.30;39.00;;;10.40;99.90;;;;;;5016877;28;20207;-61
2023/12/30 07:25:57;;;;;;;54.60;39.83;;;10.50;99.90;;;;;;5015806;28;20220;-61
2023/12/30 07:28:24;;;;;;;59.27;39.97;;;10.50;99.90;;;;;;5015666;28;20285;-62
2023/12/30 07:30:51;;;;;;;57.87;39.40;;;10.50;99.90;;;;;;5019735;28;20224;-61
2023/12/30 07:33:18;;;;;;;54.67;40.63;;;10.50;99.90;;;;;;5017981;28;20234;-61
2023/12/30 07:35:46;;;;;;;61.47;40.93;;;10.60;99.90;;;;;;5017064;28;20249;-62
2023/12/30 07:38:13;;;;;;;60.77;41.07;;;10.60;99.90;;;;;;5018335;28;20316;-61
2023/12/30 07:40:40;;;;;;;57.13;40.33;;;10.60;99.90;;;;;;5015884;28;20255;-62
2023/12/30 07:43:08;;;;;;;58.13;41.27;;;10.60;99.90;;;;;;5016531;28;20205;-61
2023/12/30 07:45:35;;;;;;;58.40;40.67;;;10.70;99.90;;;;;;5004662;28;20530;-61
2023/12/30 07:48:02;;;;;;;58.53;40.43;;;10.70;99.90;;;;;;5020482;28;20570;-62
2023/12/30 07:50:30;;;;;;;57.90;40.63;;;10.70;99.90;;;;;;4999451;28;20305;-61
2023/12/30 07:52:57;;;;;;;53.90;39.70;;;10.70;99.90;;;;;;5014840;28;20209;-62
2023/12/30 07:55:24;;;;;;;54.97;39.87;;;10.70;99.90;;;;;;5026490;28;20227;-62
2023/12/30 07:57:51;;;;;;;56.17;41.00;;;10.80;99.90;;;;;;5020567;28;20222;-62
2023/12/30 08:00:18;;;;;;;55.57;40.43;;;10.80;99.90;;;;;;5018793;28;20203;-61
2023/12/30 08:02:46;;;;;;;63.33;40.90;;;10.80;99.90;;;;;;5016803;28;20299;-62
2023/12/30 08:05:13;;;;;;;62.57;42.83;;;10.80;99.90;;;;;;5016878;28;20652;-62
2023/12/30 08:07:40;;;;;;;60.40;41.63;;;10.90;99.90;;;;;;5021596;28;20226;-61
2023/12/30 08:10:07;;;;;;;53.17;40.13;;;10.90;99.90;;;;;;5019753;28;20229;-61
2023/12/30 08:12:36;;;;;;;61.97;43.30;;;10.90;99.90;;;;;;5014578;28;20602;-61
2023/12/30 08:15:04;;;;;;;68.20;44.47;;;10.90;99.90;;;;;;5017343;28;20209;-62
2023/12/30 08:17:31;;;;;;;56.53;41.83;;;10.90;99.90;;;;;;5014396;28;20214;-62
2023/12/30 08:19:59;;;;;;;59.40;42.03;;;11.00;99.90;;;;;;5017224;28;20202;-62
2023/12/30 08:22:26;;;;;;;58.37;42.00;;;11.00;99.90;;;;;;5019657;28;20203;-62
2023/12/30 08:24:53;;;;;;;60.23;43.30;;;11.00;99.90;;;;;;5013590;28;20198;-62
2023/12/30 08:27:21;;;;;;;58.03;42.80;;;11.00;99.90;;;;;;5013559;28;20199;-61
2023/12/30 08:29:48;;;;;;;59.60;43.33;;;11.00;99.90;;;;;;5015402;28;20203;-61
2023/12/30 08:32:16;;;;;;;58.67;42.47;;;11.00;99.90;;;;;;5022734;28;20578;-61
2023/12/30 08:34:43;;;;;;;63.50;43.80;;;11.10;99.90;;;;;;5017178;28;20639;-62
2023/12/30 08:37:10;;;;;;;54.30;43.27;;;11.10;99.90;;;;;;5023263;28;20231;-62
2023/12/30 08:39:37;;;;;;;70.07;44.60;;;11.10;99.90;;;;;;5016702;28;20625;-61
2023/12/30 08:42:06;;;;;;;56.37;43.83;;;11.10;99.90;;;;;;5016766;28;20200;-61
2023/12/30 08:44:37;;;;;;;59.87;45.07;;;11.10;99.90;;;;;;5003537;28;20199;-62
2023/12/30 08:47:05;;;;;;;61.13;44.33;;;11.10;99.90;;;;;;5022841;28;20205;-61
2023/12/30 08:49:33;;;;;;;61.20;44.20;;;11.10;99.90;;;;;;5018735;28;20201;-61
2023/12/30 08:52:00;;;;;;;61.03;44.47;;;11.10;99.90;;;;;;5016189;28;20206;-62
2023/12/30 08:54:27;;;;;;;68.13;43.97;;;11.10;99.90;;;;;;5019431;28;20275;-62
2023/12/30 08:56:55;;;;;;;58.43;44.77;;;11.10;99.90;;;;;;5018533;28;20280;-62
2023/12/30 08:59:24;;;;;;;60.97;45.07;;;11.10;99.90;;;;;;5016898;28;20225;-62
2023/12/30 09:01:52;;;;;;;60.23;44.90;;;11.20;99.90;;;;;;5016449;28;20194;-61
2023/12/30 09:04:19;;;;;;;59.30;44.30;;;11.20;99.90;;;;;;5015154;28;20681;-61
2023/12/30 09:06:46;;;;;;;59.63;43.87;;;11.20;99.90;;;;;;5011792;28;20287;-62
2023/12/30 09:09:13;;;;;;;62.30;43.93;;;11.20;99.90;;;;;;5018850;28;20196;-62
2023/12/30 09:11:42;;;;;;;60.13;44.63;;;11.20;99.90;;;;;;5018233;28;20213;-62
2023/12/30 09:14:10;;;;;;;62.47;43.73;;;11.20;99.90;;;;;;5019627;28;20229;-61
2023/12/30 09:16:37;;;;;;;61.97;43.83;;;11.20;99.90;;;;;;5014631;28;20210;-62
2023/12/30 09:19:05;;;;;;;62.13;46.27;;;11.10;99.90;;;;;;5014920;28;20211;-61
2023/12/30 09:21:32;;;;;;;59.90;44.97;;;11.20;99.90;;;;;;5019236;28;20277;-61
2023/12/30 09:23:59;;;;;;;56.47;43.20;;;11.20;99.90;;;;;;5014441;28;20207;-61
2023/12/30 09:26:26;;;;;;;59.70;45.23;;;11.10;99.90;;;;;;5015059;28;20279;-61
2023/12/30 09:28:53;;;;;;;66.53;47.57;;;11.10;99.90;;;;;;5014686;28;20203;-61
2023/12/30 09:31:20;;;;;;;62.10;46.60;;;11.10;99.90;;;;;;5017886;28;20216;-62
2023/12/30 09:33:49;;;;;;;63.97;46.43;;;11.10;99.90;;;;;;5017742;28;20202;-62
2023/12/30 09:36:17;;;;;;;57.73;44.13;;;11.10;99.90;;;;;;5018203;28;20547;-61
2023/12/30 09:38:44;;;;;;;63.03;44.40;;;11.20;99.90;;;;;;5020063;28;20198;-62
2023/12/30 09:41:13;;;;;;;57.23;43.57;;;11.20;99.90;;;;;;5017759;28;20205;-62
2023/12/30 09:43:41;;;;;;;60.17;43.87;;;11.20;99.90;;;;;;5016720;28;20269;-62
2023/12/30 09:46:09;;;;;;;66.07;45.30;;;11.20;99.90;;;;;;5015932;28;20253;-61
2023/12/30 09:48:39;;;;;;;56.53;42.60;;;11.30;99.90;;;;;;5023550;28;20198;-62
2023/12/30 09:51:07;;;;;;;65.43;44.20;;;11.30;99.90;;;;;;5017840;28;20228;-61
2023/12/30 09:53:34;;;;;;;60.67;42.83;;;11.30;99.90;;;;;;5017769;28;20517;-61
2023/12/30 09:56:02;;;;;;;59.65;42.95;;;11.40;99.90;;;;;;5018854;28;20195;-61
2023/12/30 09:58:31;;;;;;;59.53;42.60;;;11.40;99.90;;;;;;5018181;28;20585;-61
2023/12/30 10:00:58;;;;;;;59.70;42.43;;;11.40;99.90;;;;;;5022915;28;20195;-61
2023/12/30 10:03:28;;;;;;;56.07;42.73;;;11.40;99.90;;;;;;5025184;28;20262;-61
2023/12/30 10:05:59;;;;;;;54.50;41.63;;;11.50;99.90;;;;;;5018307;28;20687;-62
2023/12/30 10:08:28;;;;;;;53.83;41.57;;;11.50;99.90;;;;;;5017053;28;20211;-61
2023/12/30 10:10:57;;;;;;;57.87;42.33;;;11.60;99.90;;;;;;5020456;28;20206;-61
2023/12/30 10:13:27;;;;;;;59.97;43.83;;;11.60;99.80;;;;;;5018176;28;20241;-62
2023/12/30 10:16:02;;;;;;;63.90;44.10;;;11.60;99.80;;;;;;5018528;28;20229;-61
2023/12/30 10:18:37;;;;;;;56.90;42.33;;;11.60;99.70;;;;;;5017581;28;20218;-61
2023/12/30 10:21:06;;;;;;;57.07;42.13;;;11.60;99.70;;;;;;5017331;28;20215;-62
2023/12/30 10:23:34;;;;;;;62.27;40.37;;;11.70;99.70;;;;;;5017445;28;20196;-61
2023/12/30 10:26:03;;;;;;;51.53;39.57;;;11.70;99.60;;;;;;5015319;28;20203;-61
2023/12/30 10:28:30;;;;;;;53.93;40.07;;;11.80;99.50;;;;;;5017897;28;20254;-62
2023/12/30 10:31:02;;;;;;;57.43;41.13;;;11.80;99.40;;;;;;5017147;28;20572;-62
2023/12/30 10:33:30;;;;;;;54.53;41.77;;;11.80;99.30;;;;;;5018819;28;20203;-61
2023/12/30 10:35:57;;;;;;;57.57;42.23;;;11.90;99.30;;;;;;5018662;28;20532;-61
2023/12/30 10:38:25;;;;;;;58.83;44.00;;;11.90;99.20;;;;;;5019855;28;20215;-61
2023/12/30 10:40:53;;;;;;;54.33;42.03;;;11.90;99.10;;;;;;5015275;28;20205;-62
2023/12/30 10:43:21;;;;;;;55.90;41.30;;;12.00;99.00;;;;;;5018658;28;20230;-61
2023/12/30 10:45:57;;;;;;;55.30;41.47;;;12.00;98.80;;;;;;5016002;28;20662;-61
2023/12/30 10:48:31;;;;;;;55.87;42.03;;;11.90;98.60;;;;;;5014312;28;20272;-61
2023/12/30 10:51:00;;;;;;;63.30;45.73;;;11.90;98.60;;;;;;5020510;28;20523;-62
2023/12/30 10:53:31;;;;;;;64.93;43.20;;;11.90;98.70;;;;;;5021409;28;20207;-62
2023/12/30 10:56:03;;;;;;;60.27;44.90;;;11.90;98.70;;;;;;5016073;28;20205;-62
2023/12/30 10:58:36;;;;;;;65.20;44.43;;;11.90;98.60;;;;;;5015170;28;20344;-62
2023/12/30 11:01:04;;;;;;;72.70;46.47;;;11.90;98.70;;;;;;5024389;28;20196;-61
2023/12/30 11:03:34;;;;;;;70.93;45.03;;;11.90;98.70;;;;;;5021289;28;20266;-62
2023/12/30 11:06:23;;;;;;;69.87;45.73;;;12.00;98.70;;;;;;5019736;28;20263;-62
2023/12/30 11:08:59;;;;;;;62.77;43.90;;;12.00;98.70;;;;;;5014003;28;20202;-61
2023/12/30 11:11:26;;;;;;;67.00;44.13;;;12.00;98.60;;;;;;5019371;28;20526;-62
2023/12/30 11:13:57;;;;;;;61.00;42.53;;;12.00;98.60;;;;;;5015484;28;20265;-62
2023/12/30 11:16:24;;;;;;;63.23;43.27;;;12.00;98.60;;;;;;5016028;28;20265;-61
2023/12/30 11:19:01;;;;;;;59.63;41.03;;;12.00;98.60;;;;;;5017336;28;20211;-61
2023/12/30 11:21:46;;;;;;;58.73;41.27;;;12.10;98.50;;;;;;5018312;28;20213;-61
2023/12/30 11:24:15;;;;;;;66.17;43.37;;;12.00;98.40;;;;;;5019765;28;20265;-61
2023/12/30 11:26:43;;;;;;;63.03;42.37;;;12.00;98.40;;;;;;4999388;28;20533;-62
2023/12/30 11:29:17;;;;;;;67.13;42.53;;;12.00;98.50;;;;;;5015417;28;20661;-62
2023/12/30 11:31:46;;;;;;;69.53;43.23;;;12.10;98.60;;;;;;5017264;28;20187;-61
2023/12/30 11:34:17;;;;;;;62.70;41.97;;;12.10;98.60;;;;;;5016161;28;20205;-62
2023/12/30 11:36:47;;;;;;;60.77;42.97;;;12.10;98.60;;;;;;5016326;28;20199;-62
2023/12/30 11:39:28;;;;;;;63.60;41.43;;;12.20;98.40;;;;;;5016360;28;20601;-62
2023/12/30 11:41:57;;;;;;;63.77;40.70;;;12.20;98.30;;;;;;5016938;28;20826;-62
2023/12/30 11:44:27;;;;;;;58.90;40.10;;;12.30;98.30;;;;;;5019617;28;20279;-61
2023/12/30 11:46:54;;;;;;;63.93;38.63;;;12.30;98.20;;;;;;5012952;28;20213;-62
2023/12/30 11:49:23;;;;;;;67.00;42.80;;;12.30;98.20;;;;;;5014391;28;20203;-62
2023/12/30 11:51:51;;;;;;;63.83;40.27;;;12.30;98.20;;;;;;5019045;28;20277;-62
2023/12/30 11:54:18;;;;;;;66.97;42.03;;;12.30;98.10;;;;;;5019197;28;20202;-61
2023/12/30 11:56:45;;;;;;;71.80;45.40;;;12.20;98.10;;;;;;5021669;28;20269;-62
2023/12/30 11:59:13;;;;;;;70.87;44.80;;;12.30;98.10;;;;;;5014122;28;20193;-62
2023/12/30 12:01:40;;;;;;;71.10;44.47;;;12.30;98.20;;;;;;5019554;28;20250;-62
2023/12/30 12:04:09;;;;;;;69.07;42.40;;;12.40;98.30;;;;;;5018282;28;20237;-61
2023/12/30 12:06:37;;;;;;;69.80;43.87;;;12.50;98.30;;;;;;5017915;28;20250;-62
2023/12/30 12:09:06;;;;;;;67.10;42.30;;;12.60;98.20;;;;;;5016347;28;20570;-61
2023/12/30 12:11:33;;;;;;;67.93;40.67;;;12.60;98.10;;;;;;5015403;28;20199;-62
2023/12/30 12:14:01;;;;;;;62.43;40.17;;;12.70;98.00;;;;;;5019052;28;20569;-61
2023/12/30 12:16:31;;;;;;;58.67;38.57;;;12.70;97.90;;;;;;5018453;28;20248;-62
2023/12/30 12:19:03;;;;;;;62.87;39.90;;;12.80;97.80;;;;;;5012801;28;20313;-62
2023/12/30 12:21:30;;;;;;;61.23;40.13;;;12.80;97.50;;;;;;4984409;28;20208;-62
2023/12/30 12:23:58;;;;;;;64.93;41.60;;;12.80;97.50;;;;;;5016377;28;20629;-62
2023/12/30 12:26:26;;;;;;;65.57;41.47;;;12.80;97.50;;;;;;5017900;28;20204;-62
2023/12/30 12:28:57;;;;;;;67.47;40.47;;;12.90;97.50;;;;;;5013215;28;20224;-62
2023/12/30 12:31:30;;;;;;;65.30;41.67;;;12.90;97.50;;;;;;5011283;28;20214;-61